Pagina principale
METAR-TAF:

METAR-TAF

Aeroporti :

Aeroporto di Berna

Berna, Svizzera

latitudine: 46-55N, longitudine: 007-30E, altezza: 505 m

Osservazione

Il bollettino è stato emesso 2 ore e 48 minuti fa, alle 05:20 UTC
Vento 2 kt da est/sud-est
Temperature 14°C
Umidità 100%
Pressione 1020 hPa
Visibilità 10 km o più
nessuna nube inferiore a 1500 m e nessun cumulonembo

METAR: LSZB 210520Z 11002KT CAVOK 14/14 Q1020 NOSIG

Ora: 10:08 (08:08 UTC)

Previsione

Il bollettino è stato emesso 2 ore e 43 minuti fa, alle 05:25 UTC
Previsione valida dal 21 alle 06 UTC al 21 alle 15 UTC
Vento 3 kt da direzioni variabili
Visibilità 10 km o più
nessuna nube inferiore a 1500 m e nessun cumulonembo
Evoluzione graduale
dal 21 alle 09 UTC al 21 alle 11 UTC
Visibilità 10 km o più
Poco nuvoloso ad un'altezza di 5500 ft

TAF: LSZB 210525Z 2106/2115 VRB03KT CAVOK BECMG 2109/2111 9999 FEW055

Osservazioni e previsioni meteorologiche di più di 4000 aeroporti (messaggi METAR e TAF).

Le stazioni disponibili sono rappresentate dai dischi gialli e rossi sulla carta.

Puntare il mouse per vedere il nome della stazione.

Clicca sopra per visualizzare le osservazioni e previsioni meteorologiche.

Per cambiare la mappa : fare clic sui pulsanti verdi con una croce nera per ingrandire, il pulsante verde con un trattino per diminuire, o sulla freccia verde per le mappe adiacenti.


METAR-TAF: